createdAt,value
2023-01-23T04:31:10.939Z,87.36
2023-01-23T04:33:41.951Z,87.35
2023-01-23T04:36:10.705Z,87.42
2023-01-23T04:38:38.295Z,87.47
2023-01-23T04:41:24.047Z,87.50
2023-01-23T04:43:56.043Z,87.66
2023-01-23T04:46:23.880Z,87.86
2023-01-23T04:49:04.359Z,87.90
2023-01-23T04:51:32.245Z,87.98
2023-01-23T04:53:59.568Z,88.27
2023-01-23T04:56:26.907Z,88.47
2023-01-23T04:58:55.099Z,88.59
2023-01-23T05:01:23.851Z,88.59
2023-01-23T05:03:57.366Z,88.81
2023-01-23T05:06:24.924Z,88.96
2023-01-23T05:08:53.921Z,88.94
2023-01-23T05:11:26.748Z,89.05
2023-01-23T05:13:54.180Z,89.14
2023-01-23T05:16:21.617Z,89.26
2023-01-23T05:19:07.402Z,89.07
2023-01-23T05:21:34.961Z,89.18
2023-01-23T05:24:02.622Z,89.07
2023-01-23T05:26:30.592Z,89.14
2023-01-23T05:28:57.847Z,89.08
2023-01-23T05:31:25.432Z,89.02
2023-01-23T05:34:12.762Z,89.08
2023-01-23T05:36:40.284Z,89.25
2023-01-23T05:39:08.909Z,89.49
2023-01-23T05:41:36.121Z,89.39
2023-01-23T05:44:23.623Z,89.31
2023-01-23T05:46:54.416Z,89.39
2023-01-23T05:49:22.056Z,89.56
2023-01-23T05:51:49.191Z,89.50
2023-01-23T05:54:19.206Z,89.25
2023-01-23T05:56:46.670Z,88.97
2023-01-23T05:59:33.483Z,88.70
2023-01-23T06:02:21.384Z,88.15
2023-01-23T06:05:09.311Z,87.61
2023-01-23T06:07:48.589Z,87.17
2023-01-23T06:10:15.894Z,86.37
2023-01-23T06:12:44.229Z,85.37
2023-01-23T06:15:11.430Z,83.84
2023-01-23T06:17:38.622Z,82.66
2023-01-23T06:20:06.157Z,81.48
2023-01-23T06:22:33.430Z,80.33
2023-01-23T06:25:07.482Z,78.93
2023-01-23T06:27:34.522Z,77.84
2023-01-23T06:30:04.795Z,76.91
2023-01-23T06:32:34.966Z,74.91
2023-01-23T06:35:04.059Z,74.03
2023-01-23T06:37:34.176Z,74.23
2023-01-23T06:40:04.562Z,75.35
2023-01-23T06:42:32.266Z,76.18
2023-01-23T06:44:59.213Z,77.30
2023-01-23T06:47:26.916Z,78.77
2023-01-23T06:49:57.025Z,79.06
2023-01-23T06:52:24.273Z,78.19
2023-01-23T06:54:51.243Z,76.65
2023-01-23T06:57:18.496Z,75.51
2023-01-23T06:59:45.871Z,74.81
2023-01-23T07:02:14.233Z,73.08
2023-01-23T07:04:51.746Z,71.61
2023-01-23T07:07:18.981Z,71.44
2023-01-23T07:09:46.406Z,70.26
2023-01-23T10:13:48.726Z,60.06
2023-01-23T10:16:55.606Z,59.19
2023-01-23T10:20:05.056Z,59.07
2023-01-23T10:22:40.060Z,58.88
2023-01-23T10:25:20.740Z,58.89
2023-01-23T10:27:49.617Z,58.98
2023-01-23T10:30:35.644Z,59.41
2023-01-23T10:33:08.249Z,59.08
2023-01-23T10:35:57.092Z,58.92
2023-01-23T10:38:46.993Z,58.93
2023-01-23T10:41:15.172Z,59.14
2023-01-23T10:43:43.483Z,59.40
2023-01-23T10:46:15.918Z,59.26
2023-01-23T10:48:43.507Z,59.07
2023-01-23T10:51:29.630Z,59.42
2023-01-23T10:54:31.289Z,59.71
2023-01-23T10:57:21.177Z,59.49
2023-01-23T10:59:56.233Z,59.31
2023-01-23T11:02:28.634Z,59.62
2023-01-23T11:04:57.134Z,59.68
2023-01-23T11:07:32.611Z,59.28
2023-01-23T11:10:17.554Z,59.31
2023-01-23T11:12:49.963Z,59.71
2023-01-23T11:15:25.546Z,59.74
2023-01-23T11:17:54.529Z,59.42
2023-01-23T11:20:37.346Z,59.32
2023-01-23T11:23:13.655Z,59.07
2023-01-23T11:25:46.418Z,59.16
2023-01-23T11:28:34.260Z,59.22
2023-01-23T11:31:15.421Z,59.39
2023-01-23T11:34:00.921Z,59.34
2023-01-23T11:36:37.863Z,59.04
2023-01-23T11:39:20.976Z,58.55
2023-01-23T11:41:48.505Z,58.49
2023-01-23T11:44:23.694Z,58.02
2023-01-23T11:47:29.908Z,57.65
2023-01-23T11:50:29.467Z,57.79
2023-01-23T11:53:06.056Z,57.64
2023-01-23T11:55:34.825Z,57.94
2023-01-23T11:58:10.822Z,57.89
2023-01-23T12:00:52.449Z,57.88
2023-01-23T12:03:38.066Z,57.16
2023-01-23T16:13:19.713Z,80.39
2023-01-23T16:15:49.102Z,80.13
2023-01-23T16:18:17.781Z,79.71
2023-01-23T16:20:46.026Z,79.43
2023-01-23T16:23:25.017Z,79.16
2023-01-23T16:25:53.418Z,79.06
2023-01-23T16:28:26.725Z,79.04
2023-01-23T16:30:54.819Z,78.89
2023-01-23T16:33:22.355Z,78.86
2023-01-23T16:35:53.091Z,78.95
2023-01-23T16:38:21.683Z,79.01
2023-01-23T16:40:53.673Z,79.04
2023-01-23T16:43:22.168Z,78.97
2023-01-23T16:45:50.092Z,78.94
2023-01-23T16:48:27.608Z,78.89
2023-01-23T16:51:01.090Z,78.88
2023-01-23T16:53:40.850Z,78.98
2023-01-23T16:56:11.860Z,79.07
2023-01-23T16:58:39.631Z,79.08
2023-01-23T17:01:20.752Z,78.99
2023-01-23T17:04:02.128Z,79.01
2023-01-23T17:06:31.119Z,78.99
2023-01-23T17:08:58.739Z,78.96
2023-01-23T17:11:42.954Z,78.89
2023-01-23T17:14:16.782Z,78.82
2023-01-23T17:16:44.461Z,79.02
2023-01-23T17:19:26.587Z,79.12
2023-01-23T17:21:54.989Z,78.98
2023-01-23T17:24:22.620Z,78.95
2023-01-23T17:26:50.376Z,79.03
2023-01-23T17:29:19.667Z,78.94
2023-01-23T17:31:47.957Z,78.70
2023-01-23T17:34:24.112Z,78.50
2023-01-23T17:36:53.059Z,78.29
2023-01-23T17:39:21.451Z,77.96
2023-01-23T17:42:03.125Z,77.66
2023-01-23T17:44:31.149Z,77.41
2023-01-23T17:47:00.124Z,77.30
2023-01-23T17:49:30.171Z,77.30
2023-01-23T17:51:59.876Z,77.21
2023-01-23T17:54:27.827Z,77.10
2023-01-23T17:56:55.178Z,76.95
2023-01-23T17:59:30.184Z,77.11
2023-01-23T18:01:58.508Z,76.93
2023-01-23T18:04:43.754Z,76.79
2023-01-23T18:07:57.747Z,76.80
2023-01-23T18:10:40.483Z,76.77
2023-01-23T18:13:59.810Z,76.60
2023-01-23T18:16:28.828Z,76.80
2023-01-23T18:19:31.997Z,76.71
2023-01-23T18:22:00.469Z,76.65
2023-01-23T18:24:32.370Z,76.65
2023-01-23T18:27:24.926Z,76.94
2023-01-23T18:30:01.841Z,76.93
2023-01-23T18:32:51.116Z,76.97
2023-01-23T18:35:37.337Z,77.11
2023-01-23T18:38:49.020Z,77.43
2023-01-23T18:41:29.059Z,77.34
2023-01-23T18:47:52.415Z,77.57
2023-01-23T18:50:23.033Z,77.68
2023-01-23T18:53:37.548Z,77.69
2023-01-23T18:56:39.706Z,77.76
2023-01-23T18:59:26.735Z,77.66
2023-01-23T19:02:12.104Z,77.59
2023-01-23T19:05:16.372Z,77.53
2023-01-23T19:07:53.099Z,77.86
2023-01-23T19:10:24.174Z,77.84
2023-01-23T19:12:59.848Z,77.79
2023-01-23T19:15:53.708Z,78.15
2023-01-23T19:18:44.010Z,78.24
2023-01-23T19:21:20.697Z,78.32
2023-01-23T19:24:04.684Z,78.43
2023-01-23T19:26:38.896Z,78.46
2023-01-23T19:29:20.370Z,78.64
2023-01-23T19:32:04.052Z,78.58
2023-01-23T19:34:35.895Z,78.44
2023-01-23T19:37:07.461Z,78.40
2023-01-23T19:39:35.237Z,78.24
2023-01-23T19:42:03.621Z,78.17
2023-01-23T19:50:49.532Z,77.78
2023-01-23T19:53:19.854Z,77.72
2023-01-23T19:55:50.807Z,77.49
2023-01-23T19:58:18.884Z,77.36
2023-01-23T20:00:47.337Z,77.43
2023-01-23T20:03:17.104Z,77.46
2023-01-23T20:05:45.591Z,77.18
2023-01-23T20:08:12.844Z,77.14
2023-01-23T20:17:38.879Z,77.21
2023-01-23T20:20:09.628Z,77.04
2023-01-23T20:22:39.913Z,77.09
2023-01-23T20:25:08.878Z,77.29
2023-01-23T20:27:37.619Z,77.11
2023-01-23T20:30:17.600Z,76.96
2023-01-23T20:32:46.138Z,77.06
2023-01-23T20:35:14.209Z,77.18
2023-01-23T20:37:41.245Z,77.28
2023-01-23T20:40:09.737Z,76.98
2023-01-23T20:42:37.905Z,77.14
2023-01-23T20:45:05.668Z,77.30
2023-01-23T20:47:35.210Z,77.31
2023-01-23T20:50:04.916Z,77.30
2023-01-23T20:52:52.243Z,77.30
2023-01-23T20:55:21.660Z,77.53
2023-01-23T20:58:08.003Z,77.48
2023-01-23T21:06:50.982Z,77.87
2023-01-23T21:09:18.353Z,77.83
2023-01-23T21:11:45.675Z,77.74
2023-01-23T21:14:13.542Z,77.95
2023-01-23T21:16:40.796Z,78.08
2023-01-23T21:19:07.839Z,78.12
2023-01-23T21:21:35.428Z,78.24
2023-01-23T21:24:04.012Z,78.25
2023-01-23T21:26:31.951Z,78.41
2023-01-23T21:28:59.095Z,78.44
2023-01-23T21:31:28.800Z,78.45
2023-01-23T21:34:00.329Z,78.70
2023-01-23T21:36:28.603Z,78.83
2023-01-23T21:38:55.600Z,78.83
2023-01-23T21:41:23.137Z,78.73
2023-01-23T21:43:50.459Z,78.70
2023-01-23T21:46:17.784Z,78.96
2023-01-23T21:48:46.122Z,79.23
2023-01-23T21:51:17.495Z,79.25
2023-01-23T21:53:45.747Z,79.16
2023-01-23T21:56:14.161Z,79.19
2023-01-23T21:58:44.860Z,79.31
2023-01-23T22:01:32.576Z,79.31
2023-01-23T22:04:02.284Z,79.27
2023-01-23T22:06:30.290Z,79.33
2023-01-23T22:08:58.044Z,79.60
2023-01-23T22:11:25.706Z,79.78
2023-01-23T22:13:53.197Z,79.69
2023-01-23T22:16:25.309Z,79.67
2023-01-23T22:18:56.154Z,79.86
2023-01-23T22:21:23.369Z,80.00
2023-01-23T22:23:50.496Z,80.00
2023-01-23T22:26:18.113Z,79.99
2023-01-23T22:28:45.571Z,80.13
2023-01-23T22:31:14.758Z,80.39
2023-01-23T22:33:43.615Z,80.36
2023-01-23T22:36:12.866Z,80.23
2023-01-23T22:38:40.213Z,80.29
2023-01-23T22:41:07.445Z,80.21
2023-01-23T22:43:38.531Z,80.18
2023-01-23T22:46:07.560Z,80.15
2023-01-23T22:48:36.254Z,80.07
2023-01-23T22:51:11.902Z,80.03
2023-01-23T22:53:39.009Z,80.11
2023-01-23T22:56:06.712Z,80.35
2023-01-23T22:58:34.325Z,80.41
2023-01-23T23:01:01.794Z,80.52
2023-01-23T23:03:33.308Z,80.49
2023-01-23T23:06:02.102Z,80.61
2023-01-23T23:08:29.610Z,80.47
2023-01-23T23:11:03.706Z,80.42
2023-01-23T23:13:31.555Z,80.45
2023-01-23T23:16:01.939Z,80.61
2023-01-23T23:18:30.672Z,80.60
2023-01-23T23:21:04.962Z,80.70
2023-01-23T23:23:32.684Z,80.71
2023-01-23T23:25:59.744Z,80.85
2023-01-23T23:28:28.979Z,81.12
2023-01-23T23:30:56.474Z,80.95
2023-01-23T23:33:24.481Z,81.16
2023-01-23T23:35:52.163Z,81.20
2023-01-23T23:38:19.340Z,81.29
2023-01-23T23:41:03.515Z,81.25
2023-01-23T23:43:31.343Z,81.27
2023-01-23T23:46:00.212Z,81.45
2023-01-23T23:48:28.078Z,81.44
2023-01-23T23:50:55.271Z,81.39
2023-01-23T23:53:23.228Z,81.47
2023-01-23T23:55:50.461Z,81.61
2023-01-23T23:58:17.725Z,81.76
